• Join FlightAware (Why Join?)
  • Login
  • US Flag 
07:33PM EDT


 

Airport Tracker/Info


-or-


 

Live Flight TrackerFlight Track Log ✈ SWA2166 ✈ 10-Apr-2013 ✈ KHOU - KBWI

Flight Track Log - Related Links

Times and Time Zones

All times are in EDT time to prevent confusion due to time zone crossing. See the SWA2166 flight status page for this flight to view local times or setup timezone preferences in your user account.

Time Position Orientation Groundspeed Altitude Reporting Facility
EDT Latitude Longitude Course Direction KTS MPH feet Rate Location/Type
09:57PM 29.6497 -95.2850 North 144 166 600  Level Houston Center
09:58PM 29.6814 -95.2842 North 182 209 2,000 2,100 Climbing Houston Center
09:59PM 29.6994 -95.2158 73° East 217 250 4,400 2,700 Climbing Houston Center
10:00PM 29.6978 -95.1378 91° East 247 284 7,600 3,120 Climbing Houston Center
10:01PM 29.7247 -95.0606 68° East 256 295 10,800 2,820 Climbing Houston Center
10:02PM 29.7256 -94.9725 89° East 271 312 13,500 2,520 Climbing Houston Center
10:03PM 29.7183 -94.8803 95° East 283 326 16,000 1,800 Climbing Houston Center
10:04PM 29.7075 -94.7672 96° East 343 395 17,300 1,980 Climbing Houston Center
10:05PM 29.6933 -94.6483 98° East 375 432 20,100 2,400 Climbing Houston Center
10:06PM 29.6903 -94.5250 92° East 387 445 22,200 2,280 Climbing Houston Center
10:07PM 29.6892 -94.3756 90° East 391 450 24,800 2,040 Climbing Houston Center
10:08PM 29.6883 -94.2444 90° East 402 463 26,400 1,320 Climbing Houston Center
10:09PM 29.6569 -94.1256 107° East 410 472 27,600 1,200 Climbing Houston Center
10:10PM 29.6211 -93.9975 108° East 419 482 29,000 660 Climbing Houston Center
10:11PM 29.6489 -93.8481 78° East 472 543 29,000  Level Houston Center
10:12PM 29.6917 -93.6622 75° East 501 577 29,000  Level Houston Center
10:13PM 29.7236 -93.5069 77° East 502 578 29,000 -60 Level Houston Center
10:14PM 29.7561 -93.3531 76° East 501 577 28,900  Descending Houston Center
10:15PM 29.7875 -93.2036 76° East 488 562 29,000  Climbing Houston Center
10:16PM 29.8194 -93.0539 76° East 486 559 29,000 480 Level Houston Center
10:17PM 29.8514 -92.9047 76° East 484 557 30,000 960 Climbing Houston Center
10:18PM 29.8900 -92.7211 76° East 496 571 31,000 480 Climbing Houston Center
10:19PM 29.9228 -92.5633 76° East 507 583 31,000  Level Houston Center
10:20PM 29.9575 -92.4000 76° East 521 600 31,000 540 Level Houston Center
10:21PM 29.9914 -92.2347 77° East 531 611 32,200 1,320 Climbing Houston Center
10:22PM 30.0239 -92.0758 77° East 516 594 33,800 1,260 Climbing Houston Center
10:23PM 30.0558 -91.9150 77° East 516 594 34,800 1,020 Climbing Houston Center
10:24PM 30.0956 -91.7228 77° East 526 605 36,000 1,020 Climbing Houston Center
10:25PM 30.1317 -91.5533 76° East 537 618 36,900 480 Climbing Houston Center
10:26PM 30.1642 -91.3861 77° East 536 617 37,000  Climbing Houston Center
10:28PM 30.1975 -91.2181 77° East 538 619 37,000  Level Houston Center
10:29PM 30.2308 -91.0492 77° East 539 620 37,000  Level Houston Center
10:30PM 30.2636 -90.8783 77° East 542 624 37,000  Level Houston Center
10:31PM 30.2981 -90.7078 77° East 546 628 37,000  Level Houston Center
10:32PM 30.3297 -90.5361 78° East 545 627 37,000  Level Houston Center
10:33PM 30.3625 -90.3644 77° East 547 629 37,000  Level Houston Center
10:34PM 30.4017 -90.1586 78° East 545 627 37,000  Level Houston Center
10:35PM 30.4339 -89.9864 78° East 545 627 37,000  Level Houston Center
10:36PM 30.4686 -89.8086 77° East 547 629 37,000  Level Houston Center
10:37PM 30.5011 -89.6306 78° East 550 633 37,000  Level Houston Center
10:38PM 30.5322 -89.4572 78° East 546 628 37,000  Level Houston Center
10:39PM 30.5631 -89.2858 78° East 542 624 37,000  Level Houston Center
10:40PM 30.5914 -89.1139 79° East 542 624 37,000  Level Houston Center
10:41PM 30.6228 -88.9439 78° East 538 619 37,000  Level Houston Center
10:42PM 30.6492 -88.7878 79° East 533 613 37,000  Level Houston Center
10:43PM 30.6836 -88.5864 79° East 532 612 37,000  Level Houston Center
10:44PM 30.7100 -88.4403 78° East 530 610 37,000  Level Houston Center
10:45PM 30.7761 -88.2917 63° Northeast 521 600 37,000  Level Houston Center
10:46PM 30.8861 -88.1431 49° Northeast 507 583 37,000  Level Houston Center
10:47PM 30.9797 -88.0200 48° Northeast 507 583 37,000  Level Houston Center
10:48PM 31.0708 -87.8975 49° Northeast 499 574 37,000  Level Houston Center
10:49PM 31.1586 -87.7758 50° Northeast 492 566 37,000  Level Houston Center
10:50PM 31.2564 -87.6497 48° Northeast 496 571 37,000  Level Houston Center
10:51PM 31.3481 -87.5292 48° Northeast 498 573 37,000  Level Houston Center
10:52PM 31.4228 -87.4236 50° Northeast 495 570 37,000  Level Atlanta Center
10:53PM 31.5075 -87.2978 52° Northeast 495 570 37,000  Level Atlanta Center
10:54PM 31.5919 -87.1742 51° Northeast 490 564 37,000  Level Atlanta Center
10:55PM 31.6744 -87.0550 51° Northeast 478 550 37,000  Level Atlanta Center
10:56PM 31.7503 -86.9328 54° Northeast 467 537 37,000 -300 Level Atlanta Center
10:57PM 31.8367 -86.8036 52° Northeast 461 531 36,500 -1,020 Descending Atlanta Center
10:58PM 31.9164 -86.6886 51° Northeast 456 525 35,000 -780 Descending Atlanta Center
10:59PM 32.0025 -86.5736 49° Northeast 456 525 35,000  Level Atlanta Center
11:00PM 32.0797 -86.4606 51° Northeast 456 525 35,000 -360 Level Atlanta Center
11:01PM 32.1467 -86.3472 55° Northeast 440 506 34,300 -1,020 Descending Atlanta Center
11:02PM 32.2236 -86.2411 49° Northeast 438 504 33,000 -660 Descending Atlanta Center
11:03PM 32.2947 -86.1225 55° Northeast 443 510 33,000  Level Atlanta Center
11:04PM 32.3717 -86.0039 52° Northeast 448 516 33,000  Level Atlanta Center
11:05PM 32.4508 -85.8875 51° Northeast 453 521 33,000  Level Atlanta Center
11:06PM 32.5361 -85.7536 53° Northeast 464 534 33,000  Level Atlanta Center
11:07PM 32.6128 -85.6392 51° Northeast 459 528 33,000  Level Atlanta Center
11:08PM 32.6936 -85.5222 51° Northeast 454 522 33,000  Level Atlanta Center
11:09PM 32.7681 -85.4025 53° Northeast 454 522 33,000  Level Atlanta Center
11:10PM 32.8444 -85.2825 53° Northeast 454 522 33,000  Level Atlanta Center
11:11PM 32.9208 -85.1622 53° Northeast 454 522 33,000  Level Atlanta Center
11:12PM 32.9992 -85.0494 50° Northeast 448 516 33,000  Level Atlanta Center
11:13PM 33.0750 -84.9314 53° Northeast 443 510 33,000  Level Atlanta Center
11:14PM 33.1511 -84.8131 52° Northeast 443 510 33,000  Level Atlanta Center
11:15PM 33.2269 -84.6919 53° Northeast 443 510 33,000  Level Atlanta Center
11:16PM 33.3006 -84.5733 53° Northeast 443 510 33,000  Level Atlanta Center
11:17PM 33.3781 -84.4517 53° Northeast 449 517 33,000  Level Atlanta Center
11:18PM 33.4517 -84.3350 53° Northeast 454 522 33,000  Level Atlanta Center
11:19PM 33.5269 -84.2133 53° Northeast 454 522 33,000  Level Atlanta Center
11:20PM 33.6042 -84.0911 53° Northeast 454 522 33,000  Level Atlanta Center
11:21PM 33.6814 -83.9689 53° Northeast 454 522 33,000  Level Atlanta Center
11:22PM 33.7564 -83.8439 54° Northeast 454 522 33,000  Level Atlanta Center
11:23PM 33.8253 -83.7386 52° Northeast 454 522 33,000  Level Atlanta Center
11:24PM 33.9000 -83.6133 54° Northeast 459 528 33,000  Level Atlanta Center
11:25PM 33.9767 -83.4903 53° Northeast 454 522 33,000  Level Atlanta Center
11:26PM 34.0533 -83.3669 53° Northeast 454 522 33,000  Level Atlanta Center
11:27PM 34.1278 -83.2458 53° Northeast 454 522 33,000  Level Atlanta Center
11:28PM 34.2042 -83.1194 54° Northeast 463 533 33,000  Level Atlanta Center
11:29PM 34.2825 -82.9956 53° Northeast 457 526 33,000  Level Atlanta Center
11:30PM 34.3564 -82.8636 56° Northeast 462 532 33,000  Level Atlanta Center
11:31PM 34.4406 -82.7267 53° Northeast 462 532 33,000  Level Atlanta Center
11:32PM 34.5206 -82.5992 53° Northeast 462 532 33,000  Level Atlanta Center
11:33PM 34.5922 -82.4869 52° Northeast 462 532 33,000  Level Atlanta Center
11:34PM 34.6678 -82.3592 54° Northeast 462 532 33,000  Level Atlanta Center
11:35PM 34.7453 -82.2314 54° Northeast 462 532 33,000  Level Atlanta Center
11:36PM 34.8203 -82.1006 55° Northeast 462 532 33,000  Level Atlanta Center
11:37PM 34.8956 -81.9747 54° Northeast 462 532 33,000  Level Atlanta Center
11:38PM 34.9706 -81.8514 53° Northeast 457 526 33,000  Level Atlanta Center
11:39PM 35.0475 -81.7200 54° Northeast 457 526 33,000  Level Atlanta Center
11:40PM 35.1203 -81.5961 54° Northeast 452 520 33,000  Level Atlanta Center
11:41PM 35.1947 -81.4667 55° Northeast 457 526 33,000  Level Atlanta Center
11:42PM 35.2692 -81.3372 55° Northeast 457 526 33,000  Level Atlanta Center
11:43PM 35.3394 -81.2128 55° Northeast 452 520 33,000 -720 Level Atlanta Center
11:44PM 35.4175 -81.0775 55° Northeast 468 539 31,600 -1,020 Descending Atlanta Center
11:45PM 35.4936 -80.9497 54° Northeast 468 539 31,000 -300 Descending Atlanta Center
11:46PM 35.5675 -80.8167 56° Northeast 468 539 31,000  Level Atlanta Center
11:47PM 35.6414 -80.6911 54° Northeast 457 526 31,000  Level Atlanta Center
11:48PM 35.7169 -80.5603 55° Northeast 457 526 31,000  Level Atlanta Center
11:49PM 35.7922 -80.4264 55° Northeast 462 532 31,000  Level Atlanta Center
11:50PM 35.8717 -80.2844 55° Northeast 456 525 31,000  Level Atlanta Center
11:51PM 35.9447 -80.1531 55° Northeast 461 531 31,000  Level Atlanta Center
11:53PM 36.0756 -79.9275 54° Northeast 453 521 31,000  Level Washington Center
11:54PM 36.1511 -79.7953 55° Northeast 458 527 31,000  Level Washington Center
11:55PM 36.2311 -79.6503 56° Northeast 466 536 31,000  Level Washington Center
11:56PM 36.3022 -79.5197 56° Northeast 466 536 31,000  Level Washington Center
11:57PM 36.3750 -79.4047 52° Northeast 466 536 31,000  Level Washington Center
11:58PM 36.4506 -79.2561 58° Northeast 466 536 31,000  Level Washington Center
11:59PM 36.5189 -79.1378 54° Northeast 459 528 31,000 -540 Level Washington Center
12:00AM 36.5933 -79.0094 54° Northeast 459 528 30,000 -900 Descending Washington Center
12:01AM 36.6703 -78.8703 55° Northeast 459 528 29,200 -540 Descending Washington Center
12:02AM 36.7428 -78.7333 57° Northeast 464 534 29,000 -120 Descending Washington Center
12:03AM 36.8108 -78.6064 56° Northeast 455 524 29,000  Level Washington Center
12:04AM 36.8931 -78.4875 49° Northeast 450 518 29,000  Level Washington Center
12:05AM 36.9867 -78.4078 34° Northeast 439 505 29,000  Level Washington Center
12:06AM 37.0889 -78.3178 35° Northeast 444 511 29,000  Level Washington Center
12:07AM 37.1933 -78.2250 35° Northeast 444 511 29,000  Level Washington Center
12:08AM 37.3017 -78.1297 35° Northeast 444 511 29,000  Level Washington Center
12:09AM 37.4039 -78.0336 37° Northeast 444 511 29,000  Level Washington Center
12:10AM 37.5058 -77.9428 35° Northeast 444 511 29,000  Level Washington Center
12:11AM 37.6078 -77.8489 36° Northeast 449 517 29,000 -1,200 Level Washington Center
12:12AM 37.7117 -77.7547 36° Northeast 449 517 26,600 -2,580 Descending Washington Center
12:13AM 37.8114 -77.6631 36° Northeast 449 517 23,900 -1,800 Descending Washington Center
12:14AM 37.9067 -77.5761 36° Northeast 438 504 23,000 -480 Descending Washington Center
12:15AM 38.0019 -77.4892 36° Northeast 427 491 23,000 -60 Level Washington Center
12:16AM 38.0864 -77.4122 36° Northeast 422 486 22,900 -1,500 Descending Washington Center
12:17AM 38.1922 -77.3142 36° Northeast 417 480 20,100 -2,520 Descending Washington Center
12:18AM 38.2808 -77.2289 37° Northeast 411 473 17,900 -1,560 Descending Washington Center
12:19AM 38.3553 -77.1300 46° Northeast 390 449 17,000 -960 Descending Washington Center
12:20AM 38.4294 -77.0308 46° Northeast 383 441 16,000 -1,560 Descending Washington Center
12:21AM 38.4994 -76.9342 47° Northeast 377 434 13,900 -2,160 Descending Washington Center
12:22AM 38.5692 -76.8397 47° Northeast 367 422 11,700 -1,860 Descending Washington Center
12:23AM 38.6347 -76.7531 46° Northeast 355 409 10,200 -1,440 Descending Washington Center
12:24AM 38.6958 -76.6689 47° Northeast 332 382 8,900 -1,500 Descending Washington Center
12:25AM 38.7333 -76.6167 47° Northeast 303 349 7,600 -1,500 Descending Potomac TRACON
12:26AM 38.8000 -76.5333 44° Northeast 295 339 6,200 -1,140 Descending Potomac TRACON
12:27AM 38.8667 -76.5333 360° North 263 303 5,300 -1,020 Descending Potomac TRACON
12:28AM 38.9500 -76.5667 343° North 255 293 4,100 -1,080 Descending Potomac TRACON
12:29AM 39.0167 -76.5833 349° North 250 288 3,100 -660 Descending Potomac TRACON
12:30AM 39.0833 -76.6000 349° North 198 228 2,800 -900 Descending Potomac TRACON
12:31AM 39.1167 -76.6167 339° North 160 184 1,400 -1,200 Descending Potomac TRACON
12:32AM 39.1500 -76.6500 322° Northwest 126 145 400 -960 Descending Potomac TRACON
12:34AM 39.1667 -76.6667 339° North  Level FlightAware Approximate
12:41AM 39.1754 -76.6683 339° North  Level Estimated
12:42AM 39.1754 -76.6683 339° North  Level Estimated
12:43AM 39.1754 -76.6683 339° North  Level Estimated